Terminal Aerodrome Forecast
Issued by NWS

Home | Current Version | Previous Version | Text Only | Print | Product List | Glossary On
Versions: 1 2 3 4 5 6 7 8 9 10 11 12 13
429
FTUS45 KRIW 271136
TAFLND
TAF
KLND 271136Z 2712/2812 VRB05KT P6SM SCT070 BKN090
     FM271900 05006KT P6SM VCSH SCT050 BKN080
     FM280100 25008KT P6SM VCSH SCT035 BKN050
     FM280800 VRB05KT P6SM SCT070=

USA.gov is the U.S. government's official web portal to all federal, state and local government web resources and services.